Burton, MI (48529)

1:10 AM EST on February 01, 2015 (GMT -0500)
Dave Grand Blanc | Change Station
CLOSE
Current Station
Personal Weather Station
Location: Grand Blanc, MI
Elevation: 797 ft
Nearby Weather Stations
Active Advisory: Winter Weather Advisory

Elev 797 ft 42.95 °N, 83.67 °W | Updated 5 seconds ago

Overcast
Overcast
28.3 °F
Feels Like 28 °F
N
2.5
Wind Variable Wind from East
Gusts 5.4 mph

Today
High -- | Low -- °F
--% Chance of Precip.
Yesterday
High -- | Low -- °F
Precip. -- in
7:49 AM 5:47 PM
Waxing Gibbous, 93% visible
Pressure 30.22 in
Visibility 10.0 miles
Clouds Overcast 2400 ft
Windchill 28 °F
Dew Point 21 °F
Humidity 74%
Rainfall 0.00 in
Snow Depth Not available.
UV 0 out of 12
Pollen .10 out of 12
Air Quality Not available.
Flu Activity Not available.
METAR KFNT 010553Z AUTO 03010KT 10SM OVC024 M02/M07 A3019 RMK AO2 SLP233 T10221072 10006 21022 53003

More Conditions Fewer Conditions

Pressure 30.22 in
Visibility 10.0 miles
Clouds Overcast 2400 ft
Windchill 28 °F
Dew Point 21 °F
Humidity 74%
Rainfall 0.00 in
Snow Depth Not available.
UV 0 out of 12
Pollen .10 out of 12
Air Quality Not available.
Flu Activity Not available.
METAR KFNT 010553Z AUTO 03010KT 10SM OVC024 M02/M07 A3019 RMK AO2 SLP233 T10221072 10006 21022 53003

More Conditions Fewer Conditions

10-Day Weather Forecast

Almanac

Astronomy

Feb. 01, 2015 Rise Set
Actual Time
Civil Twilight
Nautical Twilight
Astronomical Twilight
Moon
Length of Visible Light
Length of Day
Tomorrow will be .
, % of the Moon is Illuminated

Today's Extremes

State Highs State Lows

Community

WunderPhotos

Upload Photos

1,792,322 photos uploaded!

WunderBlogs® & News

Nearby

Air Quality

  Air Quality AQ Index Pollutant
Not available.

Snow Depth

Station Depth Elevation

Earthquake Activity

City Distance Mag. Time & Date
Minimum magnitude displayed is 2.5.

Coastal Water Temperatures

Place Temperature

Nearby Weather Stations